Time,TemperatureF,DewpointF,PressureIn,WindDirection,WindDirectionDegrees,WindSpeedMPH,WindSpeedGustMPH,Humidity,HourlyPrecipIn,Conditions,Clouds,dailyrainin,SoftwareType,DateUTC
2013-07-09 00:02:00,67.6,66.4,29.86,WSW,244,0.0,0.0,96,0.00,,---,0.00,VWS V14.01,2013-07-09 05:02:00,
2013-07-09 00:08:00,67.3,66.1,29.86,WSW,244,0.0,0.0,96,0.00,,---,0.00,VWS V14.01,2013-07-09 05:08:00,
2013-07-09 00:13:00,67.2,66.0,29.86,WSW,244,0.0,0.0,96,0.00,,---,0.00,VWS V14.01,2013-07-09 05:13:00,
2013-07-09 00:18:00,67.0,65.8,29.87,WSW,244,0.0,0.0,96,0.00,,---,0.00,VWS V14.01,2013-07-09 05:18:00,
2013-07-09 00:23:00,66.7,65.5,29.87,WSW,244,0.0,0.0,96,0.00,,---,0.00,VWS V14.01,2013-07-09 05:23:00,
2013-07-09 00:28:00,66.5,65.6,29.87,WSW,244,0.0,0.0,97,0.00,,---,0.00,VWS V14.01,2013-07-09 05:28:00,
2013-07-09 00:33:00,66.4,65.5,29.87,WSW,244,0.0,0.0,97,0.00,,---,0.00,VWS V14.01,2013-07-09 05:33:00,
2013-07-09 00:38:00,66.4,65.5,29.87,WSW,244,0.0,0.0,97,0.00,,---,0.00,VWS V14.01,2013-07-09 05:38:00,
2013-07-09 00:43:00,66.6,65.7,29.87,WSW,244,0.0,0.0,97,0.00,,---,0.00,VWS V14.01,2013-07-09 05:43:00,
2013-07-09 00:48:00,66.6,65.7,29.87,WSW,244,0.0,1.0,97,0.00,,---,0.00,VWS V14.01,2013-07-09 05:48:00,
2013-07-09 00:53:00,66.7,65.8,29.87,WSW,244,0.0,1.0,97,0.00,,---,0.00,VWS V14.01,2013-07-09 05:53:00,
2013-07-09 00:58:00,66.8,65.9,29.87,WSW,244,0.0,1.0,97,0.00,,---,0.00,VWS V14.01,2013-07-09 05:58:00,
2013-07-09 01:03:00,66.7,65.8,29.86,WSW,244,0.0,0.0,97,0.00,,---,0.00,VWS V14.01,2013-07-09 06:03:00,
2013-07-09 01:08:00,66.6,65.7,29.86,WSW,244,0.0,0.0,97,0.00,,---,0.00,VWS V14.01,2013-07-09 06:08:00,
2013-07-09 01:13:00,66.4,65.5,29.86,WSW,244,0.0,0.0,97,0.00,,---,0.00,VWS V14.01,2013-07-09 06:13:00,
2013-07-09 01:18:00,66.2,65.3,29.86,WSW,244,0.0,0.0,97,0.00,,---,0.00,VWS V14.01,2013-07-09 06:18:00,
2013-07-09 01:23:00,66.1,65.2,29.86,WSW,244,0.0,0.0,97,0.00,,---,0.00,VWS V14.01,2013-07-09 06:23:00,
2013-07-09 01:28:00,66.0,65.1,29.86,WSW,244,0.0,0.0,97,0.00,,---,0.00,VWS V14.01,2013-07-09 06:28:00,
2013-07-09 01:33:00,66.1,65.2,29.86,WSW,244,0.0,0.0,97,0.00,,---,0.00,VWS V14.01,2013-07-09 06:33:00,
2013-07-09 01:38:00,66.2,65.6,29.86,WSW,244,0.0,0.0,98,0.00,,---,0.00,VWS V14.01,2013-07-09 06:38:00,
2013-07-09 01:43:00,66.1,65.2,29.86,WSW,244,0.0,0.0,97,0.00,,---,0.00,VWS V14.01,2013-07-09 06:43:00,
2013-07-09 01:49:00,66.3,65.7,29.85,WSW,244,0.0,0.0,98,0.00,,---,0.00,VWS V14.01,2013-07-09 06:49:00,
2013-07-09 01:54:00,66.5,65.9,29.85,WSW,244,0.0,0.0,98,0.00,,---,0.00,VWS V14.01,2013-07-09 06:54:00,
2013-07-09 01:59:00,66.5,65.9,29.85,WSW,244,0.0,0.0,98,0.00,,---,0.00,VWS V14.01,2013-07-09 06:59:00,
2013-07-09 02:04:00,66.4,65.8,29.86,WSW,244,0.0,0.0,98,0.00,,---,0.00,VWS V14.01,2013-07-09 07:04:00,
2013-07-09 02:09:00,66.6,66.0,29.86,WSW,244,0.0,0.0,98,0.00,,---,0.00,VWS V14.01,2013-07-09 07:09:00,
2013-07-09 02:14:00,66.8,66.2,29.86,WSW,244,0.0,0.0,98,0.00,,---,0.00,VWS V14.01,2013-07-09 07:14:00,
2013-07-09 02:19:00,67.0,66.4,29.86,WSW,244,0.0,0.0,98,0.00,,---,0.00,VWS V14.01,2013-07-09 07:19:00,
2013-07-09 02:24:00,67.0,66.4,29.86,WSW,244,0.0,0.0,98,0.00,,---,0.00,VWS V14.01,2013-07-09 07:24:00,
2013-07-09 02:29:00,67.1,66.5,29.86,WSW,244,0.0,0.0,98,0.00,,---,0.00,VWS V14.01,2013-07-09 07:29:00,
2013-07-09 02:34:00,67.2,66.6,29.87,WSW,244,0.0,0.0,98,0.00,,---,0.00,VWS V14.01,2013-07-09 07:34:00,
2013-07-09 02:39:00,67.3,66.7,29.87,WSW,244,0.0,0.0,98,0.00,,---,0.00,VWS V14.01,2013-07-09 07:39:00,
2013-07-09 02:44:00,67.3,66.7,29.86,WSW,244,0.0,0.0,98,0.00,,---,0.00,VWS V14.01,2013-07-09 07:44:00,
2013-07-09 02:52:00,67.2,66.6,29.86,WSW,244,0.0,0.0,98,0.00,,---,0.00,VWS V14.01,2013-07-09 07:52:00,
2013-07-09 02:57:00,67.1,66.5,29.86,WSW,244,0.0,0.0,98,0.00,,---,0.00,VWS V14.01,2013-07-09 07:57:00,
2013-07-09 03:03:00,67.4,66.8,29.86,WSW,244,0.0,0.0,98,0.00,,---,0.00,VWS V14.01,2013-07-09 08:03:00,
2013-07-09 03:08:00,67.6,67.0,29.86,WSW,244,0.0,0.0,98,0.00,,---,0.00,VWS V14.01,2013-07-09 08:08:00,
2013-07-09 03:13:00,67.8,67.2,29.86,WSW,244,0.0,0.0,98,0.00,,---,0.00,VWS V14.01,2013-07-09 08:13:00,
2013-07-09 03:18:00,67.9,67.3,29.85,WSW,244,0.0,0.0,98,0.00,,---,0.00,VWS V14.01,2013-07-09 08:18:00,
2013-07-09 03:23:00,67.9,67.3,29.85,WSW,244,0.0,0.0,98,0.00,,---,0.00,VWS V14.01,2013-07-09 08:23:00,
2013-07-09 03:28:00,67.9,67.3,29.85,WSW,244,0.0,0.0,98,0.00,,---,0.00,VWS V14.01,2013-07-09 08:28:00,
2013-07-09 03:33:00,67.9,67.3,29.85,WSW,244,0.0,0.0,98,0.00,,---,0.00,VWS V14.01,2013-07-09 08:33:00,
2013-07-09 03:38:00,67.8,67.2,29.85,WSW,244,0.0,0.0,98,0.00,,---,0.00,VWS V14.01,2013-07-09 08:38:00,
2013-07-09 03:43:00,67.8,67.2,29.85,WSW,244,0.0,0.0,98,0.00,,---,0.00,VWS V14.01,2013-07-09 08:43:00,
2013-07-09 03:48:00,67.7,67.1,29.85,WSW,244,0.0,0.0,98,0.00,,---,0.00,VWS V14.01,2013-07-09 08:48:00,
2013-07-09 03:53:00,67.6,67.0,29.85,WSW,244,0.0,0.0,98,0.00,,---,0.00,VWS V14.01,2013-07-09 08:53:00,
2013-07-09 03:58:00,67.4,66.8,29.85,WSW,244,0.0,0.0,98,0.00,,---,0.00,VWS V14.01,2013-07-09 08:58:00,
2013-07-09 04:03:00,67.3,66.7,29.85,WSW,244,0.0,0.0,98,0.00,,---,0.00,VWS V14.01,2013-07-09 09:03:00,
2013-07-09 04:08:00,67.3,66.7,29.85,WSW,244,0.0,0.0,98,0.00,,---,0.00,VWS V14.01,2013-07-09 09:08:00,
2013-07-09 04:13:00,67.3,66.7,29.85,WSW,244,0.0,0.0,98,0.00,,---,0.00,VWS V14.01,2013-07-09 09:13:00,
2013-07-09 04:18:00,67.4,66.8,29.85,WSW,244,0.0,0.0,98,0.00,,---,0.00,VWS V14.01,2013-07-09 09:18:00,
2013-07-09 04:24:00,67.5,67.2,29.85,WSW,244,0.0,0.0,99,0.00,,---,0.00,VWS V14.01,2013-07-09 09:24:00,
2013-07-09 04:29:00,67.6,67.3,29.85,WSW,238,0.0,0.0,99,0.00,,---,0.00,VWS V14.01,2013-07-09 09:29:00,
2013-07-09 04:34:00,67.7,67.4,29.85,South,172,0.0,0.0,99,0.00,,---,0.00,VWS V14.01,2013-07-09 09:34:00,
2013-07-09 04:39:00,67.8,67.5,29.85,South,172,0.0,0.0,99,0.00,,---,0.00,VWS V14.01,2013-07-09 09:39:00,
2013-07-09 04:44:00,67.7,67.4,29.85,South,172,0.0,0.0,99,0.00,,---,0.00,VWS V14.01,2013-07-09 09:44:00,
2013-07-09 04:49:00,67.7,67.4,29.84,South,172,0.0,0.0,99,0.00,,---,0.00,VWS V14.01,2013-07-09 09:49:00,
2013-07-09 04:54:00,67.6,67.3,29.84,South,172,0.0,0.0,99,0.00,,---,0.00,VWS V14.01,2013-07-09 09:54:00,
2013-07-09 04:59:00,67.6,67.3,29.83,South,172,0.0,0.0,99,0.00,,---,0.00,VWS V14.01,2013-07-09 09:59:00,
2013-07-09 05:04:00,67.5,67.2,29.83,South,172,0.0,0.0,99,0.00,,---,0.00,VWS V14.01,2013-07-09 10:04:00,
2013-07-09 05:09:00,67.5,67.2,29.83,South,172,0.0,0.0,99,0.00,,---,0.00,VWS V14.01,2013-07-09 10:09:00,
2013-07-09 05:14:00,67.5,67.2,29.84,South,172,0.0,0.0,99,0.00,,---,0.00,VWS V14.01,2013-07-09 10:14:00,
2013-07-09 05:19:00,67.5,67.2,29.84,South,172,0.0,0.0,99,0.00,,---,0.00,VWS V14.01,2013-07-09 10:19:00,
2013-07-09 05:24:00,67.5,67.2,29.84,South,172,0.0,0.0,99,0.00,,---,0.00,VWS V14.01,2013-07-09 10:24:00,
2013-07-09 05:29:00,67.5,67.2,29.84,South,172,0.0,0.0,99,0.00,,---,0.00,VWS V14.01,2013-07-09 10:29:00,
2013-07-09 05:34:00,67.6,67.3,29.84,South,172,0.0,0.0,99,0.00,,---,0.00,VWS V14.01,2013-07-09 10:34:00,
2013-07-09 05:39:00,67.6,67.3,29.84,SSE,159,0.0,2.0,99,0.00,,---,0.00,VWS V14.01,2013-07-09 10:39:00,
2013-07-09 05:45:00,67.6,67.3,29.84,SSE,167,0.0,2.0,99,0.00,,---,0.00,VWS V14.01,2013-07-09 10:45:00,
2013-07-09 05:50:00,67.6,67.3,29.84,SSE,167,0.0,2.0,99,0.00,,---,0.00,VWS V14.01,2013-07-09 10:50:00,
2013-07-09 05:55:00,67.6,67.3,29.84,SSE,167,0.0,2.0,99,0.00,,---,0.00,VWS V14.01,2013-07-09 10:55:00,
2013-07-09 06:00:00,67.6,67.3,29.84,SSE,167,0.0,2.0,99,0.00,,---,0.00,VWS V14.01,2013-07-09 11:00:00,
2013-07-09 06:05:00,67.7,67.4,29.84,SSE,167,0.0,0.0,99,0.00,,---,0.00,VWS V14.01,2013-07-09 11:05:00,
2013-07-09 06:10:00,67.7,67.4,29.84,SSE,167,0.0,0.0,99,0.00,,---,0.00,VWS V14.01,2013-07-09 11:10:00,
2013-07-09 06:15:00,67.8,67.5,29.84,SSE,167,0.0,0.0,99,0.00,,---,0.00,VWS V14.01,2013-07-09 11:15:00,
2013-07-09 06:20:00,67.8,67.5,29.84,SSE,163,0.0,0.0,99,0.00,,---,0.00,VWS V14.01,2013-07-09 11:20:00,
2013-07-09 06:25:00,67.9,67.6,29.84,SSE,163,0.0,0.0,99,0.00,,---,0.00,VWS V14.01,2013-07-09 11:25:00,
2013-07-09 06:30:00,68.0,67.7,29.84,SSW,198,1.0,1.0,99,0.00,,---,0.00,VWS V14.01,2013-07-09 11:30:00,
2013-07-09 06:35:00,68.1,67.8,29.84,SW,223,0.0,2.0,99,0.00,,---,0.00,VWS V14.01,2013-07-09 11:35:00,
2013-07-09 06:40:00,68.1,67.8,29.84,SW,219,0.0,2.0,99,0.00,,---,0.00,VWS V14.01,2013-07-09 11:40:00,
2013-07-09 06:45:00,68.3,68.0,29.84,SW,219,0.0,2.0,99,0.00,,---,0.00,VWS V14.01,2013-07-09 11:45:00,
2013-07-09 06:50:00,68.5,68.2,29.84,SW,219,0.0,2.0,99,0.00,,---,0.00,VWS V14.01,2013-07-09 11:50:00,
2013-07-09 06:55:00,68.7,68.4,29.84,SW,219,0.0,2.0,99,0.00,,---,0.00,VWS V14.01,2013-07-09 11:55:00,
2013-07-09 07:00:00,68.9,68.6,29.83,SE,144,0.0,0.0,99,0.00,,---,0.00,VWS V14.01,2013-07-09 12:00:00,
2013-07-09 07:06:00,69.1,68.8,29.83,WSW,256,0.0,0.0,99,0.00,,---,0.00,VWS V14.01,2013-07-09 12:06:00,
2013-07-09 07:11:00,69.3,68.7,29.83,SW,222,0.0,0.0,98,0.00,,---,0.00,VWS V14.01,2013-07-09 12:11:00,
2013-07-09 07:16:00,69.5,68.9,29.83,ESE,121,0.0,0.0,98,0.00,,---,0.00,VWS V14.01,2013-07-09 12:16:00,
2013-07-09 07:21:00,69.7,69.1,29.83,ESE,121,0.0,0.0,98,0.00,,---,0.00,VWS V14.01,2013-07-09 12:21:00,
2013-07-09 07:26:00,69.9,69.0,29.83,ESE,121,0.0,0.0,97,0.00,,---,0.00,VWS V14.01,2013-07-09 12:26:00,
2013-07-09 07:31:00,70.2,69.3,29.82,South,169,0.0,0.0,97,0.00,,---,0.00,VWS V14.01,2013-07-09 12:31:00,
2013-07-09 07:36:00,70.8,69.9,29.82,South,169,0.0,0.0,97,0.00,,---,0.00,VWS V14.01,2013-07-09 12:36:00,
2013-07-09 07:41:00,71.2,70.0,29.82,SE,141,0.0,1.0,96,0.00,,---,0.00,VWS V14.01,2013-07-09 12:41:00,
2013-07-09 07:46:00,71.7,70.2,29.81,SE,141,0.0,1.0,95,0.00,,---,0.00,VWS V14.01,2013-07-09 12:46:00,
2013-07-09 07:51:00,72.2,70.4,29.81,WSW,237,0.0,1.0,94,0.00,,---,0.00,VWS V14.01,2013-07-09 12:51:00,
2013-07-09 07:56:00,72.5,70.4,29.81,WSW,237,0.0,1.0,93,0.00,,---,0.00,VWS V14.01,2013-07-09 12:56:00,
2013-07-09 08:01:00,72.6,70.2,29.80,SSW,206,2.0,4.0,92,0.00,,---,0.00,VWS V14.01,2013-07-09 13:01:00,
2013-07-09 08:06:00,72.7,70.2,29.80,South,169,0.0,4.0,92,0.00,,---,0.00,VWS V14.01,2013-07-09 13:06:00,
2013-07-09 08:11:00,73.2,70.4,29.80,NE,51,2.0,5.0,91,0.00,,---,0.00,VWS V14.01,2013-07-09 13:11:00,
2013-07-09 08:16:00,73.5,70.1,29.79,SSW,200,2.0,5.0,89,0.00,,---,0.00,VWS V14.01,2013-07-09 13:16:00,
2013-07-09 08:21:00,73.9,70.5,29.79,ESE,109,1.0,5.0,89,0.00,,---,0.00,VWS V14.01,2013-07-09 13:21:00,
2013-07-09 08:26:00,74.2,70.1,29.79,SSE,151,2.0,5.0,87,0.00,,---,0.00,VWS V14.01,2013-07-09 13:26:00,
2013-07-09 08:32:00,74.5,69.7,29.79,South,178,3.0,4.0,85,0.00,,---,0.00,VWS V14.01,2013-07-09 13:32:00,
2013-07-09 08:37:00,74.9,69.7,29.79,SSE,167,3.0,4.0,84,0.00,,---,0.00,VWS V14.01,2013-07-09 13:37:00,
2013-07-09 08:42:00,74.7,69.2,29.79,South,176,1.0,6.0,83,0.00,,---,0.00,VWS V14.01,2013-07-09 13:42:00,
2013-07-09 08:47:00,74.6,69.4,29.79,SE,125,1.0,6.0,84,0.00,,---,0.00,VWS V14.01,2013-07-09 13:47:00,
2013-07-09 08:52:00,74.4,69.3,29.79,SE,145,1.0,6.0,84,0.00,,---,0.00,VWS V14.01,2013-07-09 13:52:00,
2013-07-09 08:57:00,74.4,69.3,29.79,SSE,158,0.0,6.0,84,0.00,,---,0.00,VWS V14.01,2013-07-09 13:57:00,
2013-07-09 09:02:00,74.4,69.6,29.78,SE,125,1.0,1.0,85,0.00,,---,0.00,VWS V14.01,2013-07-09 14:02:00,
2013-07-09 09:07:00,74.3,69.5,29.78,SSE,153,1.0,2.0,85,0.00,,---,0.00,VWS V14.01,2013-07-09 14:07:00,
2013-07-09 09:12:00,74.8,69.3,29.78,SE,140,3.0,4.0,83,0.00,,---,0.00,VWS V14.01,2013-07-09 14:12:00,
2013-07-09 09:17:00,75.3,69.1,29.78,SSE,153,2.0,5.0,81,0.00,,---,0.00,VWS V14.01,2013-07-09 14:17:00,
2013-07-09 09:22:00,75.7,69.5,29.78,ESE,122,2.0,5.0,81,0.00,,---,0.00,VWS V14.01,2013-07-09 14:22:00,
2013-07-09 09:27:00,75.6,69.0,29.78,SE,142,1.0,5.0,80,0.00,,---,0.00,VWS V14.01,2013-07-09 14:27:00,
2013-07-09 09:32:00,75.6,69.4,29.78,SW,214,1.0,2.0,81,0.00,,---,0.00,VWS V14.01,2013-07-09 14:32:00,
2013-07-09 09:37:00,75.6,69.4,29.78,East,92,2.0,4.0,81,0.00,,---,0.00,VWS V14.01,2013-07-09 14:37:00,
2013-07-09 09:42:00,75.7,69.1,29.78,SW,227,0.0,4.0,80,0.00,,---,0.00,VWS V14.01,2013-07-09 14:42:00,
2013-07-09 09:47:00,75.8,69.2,29.77,SSE,155,1.0,4.0,80,0.00,,---,0.00,VWS V14.01,2013-07-09 14:47:00,
2013-07-09 09:52:00,76.2,69.6,29.77,SSE,148,0.0,4.0,80,0.00,,---,0.00,VWS V14.01,2013-07-09 14:52:00,
2013-07-09 09:57:00,76.4,69.4,29.77,ESE,119,1.0,4.0,79,0.00,,---,0.00,VWS V14.01,2013-07-09 14:57:00,
2013-07-09 10:02:00,76.4,69.8,29.77,SE,129,1.0,2.0,80,0.00,,---,0.00,VWS V14.01,2013-07-09 15:02:00,
2013-07-09 10:07:00,76.3,69.3,29.77,SSE,164,0.0,2.0,79,0.00,,---,0.00,VWS V14.01,2013-07-09 15:07:00,
2013-07-09 10:13:00,76.3,69.7,29.77,ESE,109,1.0,2.0,80,0.00,,---,0.00,VWS V14.01,2013-07-09 15:13:00,
2013-07-09 10:18:00,76.2,69.6,29.76,SE,146,1.0,4.0,80,0.00,,---,0.00,VWS V14.01,2013-07-09 15:18:00,
2013-07-09 10:23:00,76.2,69.2,29.76,SSE,153,2.0,4.0,79,0.00,,---,0.00,VWS V14.01,2013-07-09 15:23:00,
2013-07-09 10:28:00,76.1,69.1,29.76,SSE,148,1.0,4.0,79,0.00,,---,0.00,VWS V14.01,2013-07-09 15:28:00,
2013-07-09 10:33:00,75.9,68.9,29.77,SE,127,1.0,3.0,79,0.00,,---,0.00,VWS V14.01,2013-07-09 15:33:00,
2013-07-09 10:38:00,75.6,69.0,29.77,ESE,113,1.0,3.0,80,0.00,,---,0.00,VWS V14.01,2013-07-09 15:38:00,
2013-07-09 10:43:00,75.5,69.3,29.77,SE,126,1.0,4.0,81,0.00,,---,0.00,VWS V14.01,2013-07-09 15:43:00,
2013-07-09 10:48:00,75.6,69.4,29.77,SSE,159,1.0,4.0,81,0.00,,---,0.00,VWS V14.01,2013-07-09 15:48:00,
2013-07-09 10:53:00,75.8,69.6,29.77,SE,144,1.0,4.0,81,0.00,,---,0.00,VWS V14.01,2013-07-09 15:53:00,
2013-07-09 10:58:00,75.9,69.3,29.77,SE,127,1.0,4.0,80,0.00,,---,0.00,VWS V14.01,2013-07-09 15:58:00,
2013-07-09 11:03:00,75.9,69.7,29.77,East,89,2.0,3.0,81,0.00,,---,0.00,VWS V14.01,2013-07-09 16:03:00,
2013-07-09 11:08:00,75.8,69.6,29.77,ESE,111,1.0,3.0,81,0.00,,---,0.00,VWS V14.01,2013-07-09 16:08:00,
2013-07-09 11:13:00,75.7,69.8,29.77,ESE,107,0.0,3.0,82,0.00,,---,0.00,VWS V14.01,2013-07-09 16:13:00,
2013-07-09 11:18:00,75.7,69.8,29.76,ESE,115,1.0,3.0,82,0.00,,---,0.00,VWS V14.01,2013-07-09 16:18:00,
2013-07-09 11:23:00,75.7,70.2,29.76,ESE,117,2.0,3.0,83,0.00,,---,0.00,VWS V14.01,2013-07-09 16:23:00,
2013-07-09 11:28:00,75.6,70.1,29.76,ESE,115,1.0,3.0,83,0.00,,---,0.00,VWS V14.01,2013-07-09 16:28:00,
2013-07-09 11:33:00,75.5,70.0,29.74,ESE,103,0.0,2.0,83,0.00,,---,0.00,VWS V14.01,2013-07-09 16:33:00,
2013-07-09 11:38:00,75.7,70.2,29.74,ESE,111,0.0,2.0,83,0.00,,---,0.00,VWS V14.01,2013-07-09 16:38:00,
2013-07-09 11:43:00,75.7,69.8,29.74,ESE,117,2.0,3.0,82,0.00,,---,0.00,VWS V14.01,2013-07-09 16:43:00,
2013-07-09 11:49:00,75.9,70.4,29.74,ESE,115,1.0,3.0,83,0.00,,---,0.00,VWS V14.01,2013-07-09 16:49:00,
2013-07-09 11:54:00,76.0,70.1,29.74,South,190,2.0,4.0,82,0.00,,---,0.00,VWS V14.01,2013-07-09 16:54:00,
2013-07-09 11:59:00,76.0,70.1,29.74,ESE,123,2.0,4.0,82,0.00,,---,0.00,VWS V14.01,2013-07-09 16:59:00,
2013-07-09 12:04:00,76.0,70.5,29.74,ESE,123,1.0,2.0,83,0.00,,---,0.00,VWS V14.01,2013-07-09 17:04:00,
2013-07-09 12:09:00,76.2,70.7,29.74,SE,132,1.0,2.0,83,0.00,,---,0.00,VWS V14.01,2013-07-09 17:09:00,
2013-07-09 12:30:00,75.3,69.8,29.72,SE,135,1.0,4.0,83,0.00,,---,0.00,VWS V14.01,2013-07-09 17:30:00,
2013-07-09 13:00:00,73.0,70.2,29.71,SE,135,1.0,5.0,91,0.02,,---,0.02,VWS V14.01,2013-07-09 18:00:00,
2013-07-09 13:30:00,70.2,68.7,29.71,SE,135,1.0,6.0,95,0.08,,---,0.08,VWS V14.01,2013-07-09 18:30:00,
2013-07-09 14:00:00,71.4,70.8,29.70,SE,135,0.0,0.0,98,0.10,,---,0.10,VWS V14.01,2013-07-09 19:00:00,
2013-07-09 14:30:00,72.3,71.4,29.69,SSE,158,0.0,2.0,97,0.08,,---,0.10,VWS V14.01,2013-07-09 19:30:00,
2013-07-09 15:00:00,73.5,72.0,29.67,ESE,112,1.0,3.0,95,0.02,,---,0.10,VWS V14.01,2013-07-09 20:00:00,
2013-07-09 15:30:00,74.2,72.4,29.66,ESE,112,0.0,4.0,94,0.00,,---,0.10,VWS V14.01,2013-07-09 20:30:00,
2013-07-09 16:00:00,73.0,70.9,29.66,SE,135,1.0,3.0,93,0.01,,---,0.11,VWS V14.01,2013-07-09 21:00:00,
2013-07-09 16:30:00,74.8,72.3,29.63,ESE,112,0.0,2.0,92,0.01,,---,0.11,VWS V14.01,2013-07-09 21:30:00,
2013-07-09 17:27:00,71.2,69.7,29.62,West,277,0.0,0.0,95,0.01,,---,0.39,VWS V14.01,2013-07-09 22:27:00,
2013-07-09 17:32:00,71.3,69.8,29.62,West,275,2.0,3.0,95,0.28,,---,0.39,VWS V14.01,2013-07-09 22:32:00,
2013-07-09 17:37:00,71.8,70.6,29.62,West,259,1.0,3.0,96,0.28,,---,0.39,VWS V14.01,2013-07-09 22:37:00,
2013-07-09 17:42:00,72.1,70.6,29.62,West,280,0.0,3.0,95,0.28,,---,0.39,VWS V14.01,2013-07-09 22:42:00,
2013-07-09 17:47:00,72.0,70.5,29.62,WSW,255,4.0,5.0,95,0.28,,---,0.39,VWS V14.01,2013-07-09 22:47:00,
2013-07-09 17:52:00,71.9,70.4,29.62,West,260,1.0,5.0,95,0.28,,---,0.39,VWS V14.01,2013-07-09 22:52:00,
2013-07-09 17:57:00,71.8,70.3,29.62,WNW,287,4.0,7.0,95,0.28,,---,0.39,VWS V14.01,2013-07-09 22:57:00,
2013-07-09 18:02:00,71.8,70.0,29.62,SW,223,4.0,7.0,94,0.00,,---,0.39,VWS V14.01,2013-07-09 23:02:00,
2013-07-09 18:08:00,71.7,69.9,29.62,West,272,3.0,13.0,94,0.00,,---,0.39,VWS V14.01,2013-07-09 23:08:00,
2013-07-09 18:13:00,71.6,69.5,29.62,West,265,4.0,13.0,93,0.00,,---,0.39,VWS V14.01,2013-07-09 23:13:00,
2013-07-09 18:18:00,71.5,69.7,29.63,WNW,298,1.0,13.0,94,0.00,,---,0.39,VWS V14.01,2013-07-09 23:18:00,
2013-07-09 18:23:00,71.4,69.6,29.63,West,276,2.0,13.0,94,0.00,,---,0.39,VWS V14.01,2013-07-09 23:23:00,
2013-07-09 18:28:00,71.4,69.6,29.63,West,269,3.0,13.0,94,0.00,,---,0.39,VWS V14.01,2013-07-09 23:28:00,
2013-07-09 18:33:00,71.3,69.5,29.63,WNW,283,3.0,8.0,94,0.00,,---,0.39,VWS V14.01,2013-07-09 23:33:00,
2013-07-09 18:38:00,71.2,69.4,29.63,WSW,256,2.0,8.0,94,0.00,,---,0.39,VWS V14.01,2013-07-09 23:38:00,
2013-07-09 18:43:00,71.1,69.3,29.63,West,264,1.0,8.0,94,0.00,,---,0.39,VWS V14.01,2013-07-09 23:43:00,
2013-07-09 18:48:00,71.2,69.4,29.63,WNW,283,2.0,8.0,94,0.00,,---,0.39,VWS V14.01,2013-07-09 23:48:00,
2013-07-09 18:53:00,71.4,69.6,29.63,West,277,5.0,9.0,94,0.00,,---,0.39,VWS V14.01,2013-07-09 23:53:00,
2013-07-09 18:58:00,71.9,69.8,29.63,WNW,288,6.0,9.0,93,0.00,,---,0.39,VWS V14.01,2013-07-09 23:58:00,
2013-07-09 19:03:00,71.8,69.3,29.63,WNW,298,3.0,7.0,92,0.00,,---,0.39,VWS V14.01,2013-07-10 00:03:00,
2013-07-09 19:08:00,71.7,69.3,29.63,NW,321,4.0,7.0,92,0.00,,---,0.39,VWS V14.01,2013-07-10 00:08:00,
2013-07-09 19:13:00,71.6,69.5,29.63,West,273,2.0,11.0,93,0.00,,---,0.39,VWS V14.01,2013-07-10 00:13:00,
2013-07-09 19:18:00,71.5,69.1,29.63,West,276,4.0,11.0,92,0.00,,---,0.39,VWS V14.01,2013-07-10 00:18:00,
2013-07-09 19:23:00,71.6,69.2,29.63,West,277,3.0,11.0,92,0.00,,---,0.39,VWS V14.01,2013-07-10 00:23:00,
2013-07-09 19:28:00,71.5,69.1,29.63,West,273,1.0,11.0,92,0.00,,---,0.39,VWS V14.01,2013-07-10 00:28:00,
2013-07-09 19:33:00,71.5,69.1,29.63,WNW,296,5.0,7.0,92,0.00,,---,0.39,VWS V14.01,2013-07-10 00:33:00,
2013-07-09 19:38:00,71.6,69.2,29.63,West,265,1.0,9.0,92,0.00,,---,0.39,VWS V14.01,2013-07-10 00:38:00,
2013-07-09 19:43:00,71.5,69.1,29.63,West,269,2.0,9.0,92,0.00,,---,0.39,VWS V14.01,2013-07-10 00:43:00,
2013-07-09 19:49:00,71.5,69.1,29.64,WNW,292,3.0,9.0,92,0.00,,---,0.39,VWS V14.01,2013-07-10 00:49:00,
2013-07-09 19:54:00,71.4,69.3,29.64,West,261,3.0,9.0,93,0.00,,---,0.39,VWS V14.01,2013-07-10 00:54:00,
2013-07-09 19:59:00,71.2,68.8,29.64,West,278,4.0,9.0,92,0.00,,---,0.39,VWS V14.01,2013-07-10 00:59:00,
2013-07-09 20:04:00,71.2,69.1,29.64,WSW,255,2.0,6.0,93,0.00,,---,0.39,VWS V14.01,2013-07-10 01:04:00,
2013-07-09 20:09:00,71.2,69.1,29.64,WNW,296,2.0,7.0,93,0.00,,---,0.39,VWS V14.01,2013-07-10 01:09:00,
2013-07-09 20:14:00,71.0,68.9,29.64,WNW,284,2.0,7.0,93,0.00,,---,0.39,VWS V14.01,2013-07-10 01:14:00,
2013-07-09 20:19:00,71.0,68.9,29.64,WSW,257,1.0,10.0,93,0.00,,---,0.39,VWS V14.01,2013-07-10 01:19:00,
2013-07-09 20:24:00,70.9,69.1,29.64,SW,227,2.0,10.0,94,0.00,,---,0.39,VWS V14.01,2013-07-10 01:24:00,
2013-07-09 20:29:00,70.8,69.0,29.64,West,260,3.0,10.0,94,0.00,,---,0.39,VWS V14.01,2013-07-10 01:29:00,
2013-07-09 20:34:00,70.7,68.9,29.64,West,263,1.0,8.0,94,0.00,,---,0.39,VWS V14.01,2013-07-10 01:34:00,
2013-07-09 20:39:00,70.6,68.8,29.64,West,260,1.0,8.0,94,0.00,,---,0.39,VWS V14.01,2013-07-10 01:39:00,
2013-07-09 20:44:00,70.6,68.8,29.65,West,265,2.0,8.0,94,0.00,,---,0.39,VWS V14.01,2013-07-10 01:44:00,
2013-07-09 20:49:00,70.5,68.7,29.65,West,280,2.0,8.0,94,0.00,,---,0.39,VWS V14.01,2013-07-10 01:49:00,
2013-07-09 20:54:00,70.5,68.7,29.65,West,264,2.0,8.0,94,0.00,,---,0.39,VWS V14.01,2013-07-10 01:54:00,
2013-07-09 20:59:00,70.3,68.5,29.65,WSW,254,2.0,8.0,94,0.00,,---,0.39,VWS V14.01,2013-07-10 01:59:00,
2013-07-09 21:04:00,70.2,68.4,29.65,West,264,2.0,7.0,94,0.00,,---,0.39,VWS V14.01,2013-07-10 02:04:00,
2013-07-09 21:09:00,70.2,68.4,29.65,WSW,256,3.0,7.0,94,0.00,,---,0.39,VWS V14.01,2013-07-10 02:09:00,
2013-07-09 21:15:00,70.1,68.3,29.65,West,279,2.0,7.0,94,0.00,,---,0.39,VWS V14.01,2013-07-10 02:15:00,
2013-07-09 21:20:00,70.0,68.2,29.65,WNW,288,1.0,7.0,94,0.00,,---,0.39,VWS V14.01,2013-07-10 02:20:00,
2013-07-09 21:25:00,69.9,68.1,29.65,West,275,2.0,7.0,94,0.00,,---,0.39,VWS V14.01,2013-07-10 02:25:00,
2013-07-09 21:30:00,69.9,68.1,29.66,West,280,2.0,7.0,94,0.00,,---,0.39,VWS V14.01,2013-07-10 02:30:00,
2013-07-09 21:35:00,69.9,68.1,29.66,WNW,290,3.0,4.0,94,0.00,,---,0.39,VWS V14.01,2013-07-10 02:35:00,
2013-07-09 21:40:00,69.9,68.1,29.66,West,281,2.0,6.0,94,0.00,,---,0.39,VWS V14.01,2013-07-10 02:40:00,
2013-07-09 21:45:00,70.0,68.2,29.66,West,269,2.0,7.0,94,0.00,,---,0.39,VWS V14.01,2013-07-10 02:45:00,
2013-07-09 21:50:00,69.9,67.8,29.66,West,275,2.0,7.0,93,0.00,,---,0.39,VWS V14.01,2013-07-10 02:50:00,
2013-07-09 21:55:00,69.9,67.5,29.66,WNW,283,7.0,9.0,92,0.00,,---,0.39,VWS V14.01,2013-07-10 02:55:00,
2013-07-09 22:00:00,69.8,67.7,29.66,West,266,3.0,9.0,93,0.00,,---,0.39,VWS V14.01,2013-07-10 03:00:00,
2013-07-09 22:05:00,69.8,67.4,29.66,WNW,299,5.0,10.0,92,0.00,,---,0.39,VWS V14.01,2013-07-10 03:05:00,
2013-07-09 22:10:00,69.7,67.6,29.66,WSW,256,3.0,10.0,93,0.00,,---,0.39,VWS V14.01,2013-07-10 03:10:00,
2013-07-09 22:15:00,69.5,67.4,29.66,West,265,5.0,10.0,93,0.00,,---,0.39,VWS V14.01,2013-07-10 03:15:00,
2013-07-09 22:20:00,69.4,67.3,29.66,West,265,3.0,10.0,93,0.00,,---,0.39,VWS V14.01,2013-07-10 03:20:00,
2013-07-09 22:25:00,69.2,67.1,29.66,West,272,2.0,10.0,93,0.00,,---,0.39,VWS V14.01,2013-07-10 03:25:00,
2013-07-09 22:30:00,69.0,67.2,29.66,WNW,284,2.0,3.0,94,0.00,,---,0.39,VWS V14.01,2013-07-10 03:30:00,
2013-07-09 22:35:00,68.8,67.0,29.66,West,271,2.0,4.0,94,0.00,,---,0.39,VWS V14.01,2013-07-10 03:35:00,
2013-07-09 22:40:00,68.5,66.7,29.66,West,259,2.0,5.0,94,0.00,,---,0.39,VWS V14.01,2013-07-10 03:40:00,
2013-07-09 22:45:00,68.4,66.9,29.67,WNW,286,2.0,5.0,95,0.00,,---,0.39,VWS V14.01,2013-07-10 03:45:00,
2013-07-09 22:51:00,68.4,66.9,29.67,WNW,287,3.0,5.0,95,0.00,,---,0.39,VWS V14.01,2013-07-10 03:51:00,
2013-07-09 22:56:00,68.4,66.9,29.67,West,268,0.0,5.0,95,0.00,,---,0.39,VWS V14.01,2013-07-10 03:56:00,
2013-07-09 23:01:00,68.3,66.8,29.67,West,267,0.0,1.0,95,0.00,,---,0.39,VWS V14.01,2013-07-10 04:01:00,
2013-07-09 23:02:00,68.3,66.8,29.67,West,260,0.0,1.0,95,0.00,,---,0.39,VWS V14.01,2013-07-10 04:02:00,
2013-07-09 23:03:00,68.2,66.7,29.67,West,264,1.0,2.0,95,0.00,,---,0.39,VWS V14.01,2013-07-10 04:03:00,
2013-07-09 23:04:00,68.2,66.7,29.67,West,271,2.0,2.0,95,0.00,,---,0.39,VWS V14.01,2013-07-10 04:04:00,
2013-07-09 23:09:00,68.2,67.0,29.67,West,260,4.0,7.0,96,0.00,,---,0.39,VWS V14.01,2013-07-10 04:09:00,
2013-07-09 23:14:00,68.3,67.1,29.67,WNW,285,2.0,7.0,96,0.00,,---,0.39,VWS V14.01,2013-07-10 04:14:00,
2013-07-09 23:19:00,68.2,67.0,29.67,West,272,1.0,8.0,96,0.00,,---,0.39,VWS V14.01,2013-07-10 04:19:00,
2013-07-09 23:24:00,68.2,67.0,29.67,West,273,3.0,8.0,96,0.00,,---,0.39,VWS V14.01,2013-07-10 04:24:00,
2013-07-09 23:29:00,68.2,67.0,29.67,West,264,1.0,8.0,96,0.00,,---,0.39,VWS V14.01,2013-07-10 04:29:00,
2013-07-09 23:34:00,68.1,67.2,29.66,West,276,1.0,4.0,97,0.00,,---,0.39,VWS V14.01,2013-07-10 04:34:00,
2013-07-09 23:39:00,68.0,67.1,29.66,West,265,1.0,4.0,97,0.00,,---,0.39,VWS V14.01,2013-07-10 04:39:00,
2013-07-09 23:44:00,68.0,67.1,29.66,West,279,1.0,4.0,97,0.00,,---,0.39,VWS V14.01,2013-07-10 04:44:00,
2013-07-09 23:49:00,67.9,67.0,29.66,WNW,294,3.0,5.0,97,0.00,,---,0.39,VWS V14.01,2013-07-10 04:49:00,
2013-07-09 23:54:00,67.8,66.9,29.66,West,272,2.0,5.0,97,0.00,,---,0.39,VWS V14.01,2013-07-10 04:54:00,
2013-07-09 23:59:00,67.8,66.9,29.67,West,280,2.0,5.0,97,0.00,,---,0.39,VWS V14.01,2013-07-10 04:59:00,